sensor_id;sensor_type;location;lat;lon;timestamp;pressure;altitude;pressure_sealevel;temperature;humidity
75788;BME280;64406;50.024;14.492;2023-02-11T00:01:35;99754.56;;;-2.22;74.61
75788;BME280;64406;50.024;14.492;2023-02-11T00:04:02;99752.97;;;-2.07;74.50
75788;BME280;64406;50.024;14.492;2023-02-11T00:06:29;99751.06;;;-1.88;74.15
75788;BME280;64406;50.024;14.492;2023-02-11T00:08:56;99754.84;;;-1.91;74.06
75788;BME280;64406;50.024;14.492;2023-02-11T00:11:23;99760.28;;;-1.93;74.08
75788;BME280;64406;50.024;14.492;2023-02-11T00:14:01;99760.88;;;-2.07;74.35
75788;BME280;64406;50.024;14.492;2023-02-11T00:16:27;99761.53;;;-2.13;74.79
75788;BME280;64406;50.024;14.492;2023-02-11T00:18:53;99752.75;;;-2.22;75.02
75788;BME280;64406;50.024;14.492;2023-02-11T00:21:24;99751.50;;;-2.09;74.06
75788;BME280;64406;50.024;14.492;2023-02-11T00:23:50;99718.13;;;-2.19;74.11
75788;BME280;64406;50.024;14.492;2023-02-11T00:26:20;99743.75;;;-2.11;74.57
75788;BME280;64406;50.024;14.492;2023-02-11T00:28:48;99740.94;;;-2.09;74.44
75788;BME280;64406;50.024;14.492;2023-02-11T00:31:16;99744.66;;;-2.20;74.45
75788;BME280;64406;50.024;14.492;2023-02-11T00:33:42;99734.38;;;-2.31;75.08
75788;BME280;64406;50.024;14.492;2023-02-11T00:36:13;99733.03;;;-2.43;75.26
75788;BME280;64406;50.024;14.492;2023-02-11T00:38:39;99722.59;;;-2.53;76.12
75788;BME280;64406;50.024;14.492;2023-02-11T00:41:07;99726.09;;;-2.44;76.84
75788;BME280;64406;50.024;14.492;2023-02-11T00:43:32;99723.16;;;-2.41;76.75
75788;BME280;64406;50.024;14.492;2023-02-11T00:45:58;99716.88;;;-2.40;76.24
75788;BME280;64406;50.024;14.492;2023-02-11T00:48:23;99716.59;;;-2.37;76.25
75788;BME280;64406;50.024;14.492;2023-02-11T00:50:49;99716.63;;;-2.21;75.73
75788;BME280;64406;50.024;14.492;2023-02-11T00:53:15;99702.31;;;-2.10;75.79
75788;BME280;64406;50.024;14.492;2023-02-11T00:55:41;99695.53;;;-2.05;75.10
75788;BME280;64406;50.024;14.492;2023-02-11T00:58:06;99701.50;;;-2.11;75.57
75788;BME280;64406;50.024;14.492;2023-02-11T01:00:32;99685.97;;;-2.06;75.73
75788;BME280;64406;50.024;14.492;2023-02-11T01:02:57;99683.38;;;-1.98;74.88
75788;BME280;64406;50.024;14.492;2023-02-11T01:05:23;99665.03;;;-1.99;74.73
75788;BME280;64406;50.024;14.492;2023-02-11T01:07:49;99674.78;;;-1.92;75.31
75788;BME280;64406;50.024;14.492;2023-02-11T01:10:15;99661.75;;;-1.85;74.23
75788;BME280;64406;50.024;14.492;2023-02-11T01:12:41;99657.81;;;-1.73;73.48
75788;BME280;64406;50.024;14.492;2023-02-11T01:15:08;99652.88;;;-1.76;73.83
75788;BME280;64406;50.024;14.492;2023-02-11T01:17:34;99661.44;;;-1.74;73.43
75788;BME280;64406;50.024;14.492;2023-02-11T01:20:05;99650.22;;;-1.68;73.73
75788;BME280;64406;50.024;14.492;2023-02-11T01:22:32;99646.25;;;-1.55;73.22
75788;BME280;64406;50.024;14.492;2023-02-11T01:24:59;99655.84;;;-1.54;73.31
75788;BME280;64406;50.024;14.492;2023-02-11T01:27:25;99651.03;;;-1.59;74.04
75788;BME280;64406;50.024;14.492;2023-02-11T01:29:51;99647.75;;;-1.53;72.64
75788;BME280;64406;50.024;14.492;2023-02-11T01:32:16;99665.59;;;-1.55;73.32
75788;BME280;64406;50.024;14.492;2023-02-11T01:34:42;99635.03;;;-1.66;73.57
75788;BME280;64406;50.024;14.492;2023-02-11T01:37:07;99654.34;;;-1.49;72.83
75788;BME280;64406;50.024;14.492;2023-02-11T01:39:34;99636.19;;;-1.60;73.10
75788;BME280;64406;50.024;14.492;2023-02-11T01:42:00;99644.28;;;-1.45;73.38
75788;BME280;64406;50.024;14.492;2023-02-11T01:44:29;99658.97;;;-1.34;73.33
75788;BME280;64406;50.024;14.492;2023-02-11T01:46:54;99648.88;;;-1.39;72.95
75788;BME280;64406;50.024;14.492;2023-02-11T01:49:25;99639.00;;;-1.37;73.04
75788;BME280;64406;50.024;14.492;2023-02-11T01:52:10;99628.06;;;-1.34;72.79
75788;BME280;64406;50.024;14.492;2023-02-11T01:54:48;99635.50;;;-1.21;72.70
75788;BME280;64406;50.024;14.492;2023-02-11T01:57:35;99616.97;;;-1.13;71.91
75788;BME280;64406;50.024;14.492;2023-02-11T02:03:04;99625.38;;;-1.01;71.98
75788;BME280;64406;50.024;14.492;2023-02-11T02:05:37;99623.38;;;-0.91;71.68
75788;BME280;64406;50.024;14.492;2023-02-11T02:10:58;99617.72;;;-0.88;71.04
75788;BME280;64406;50.024;14.492;2023-02-11T02:13:26;99603.34;;;-0.94;71.37
75788;BME280;64406;50.024;14.492;2023-02-11T02:15:55;99615.84;;;-0.79;70.42
75788;BME280;64406;50.024;14.492;2023-02-11T02:18:41;99617.53;;;-0.87;71.32
75788;BME280;64406;50.024;14.492;2023-02-11T02:27:07;99583.06;;;-1.01;71.49
75788;BME280;64406;50.024;14.492;2023-02-11T02:35:22;99571.13;;;-0.89;71.10
75788;BME280;64406;50.024;14.492;2023-02-11T02:40:40;99555.47;;;-0.99;71.50
75788;BME280;64406;50.024;14.492;2023-02-11T02:43:07;99562.81;;;-0.86;72.21
75788;BME280;64406;50.024;14.492;2023-02-11T02:45:34;99575.06;;;-0.85;71.60
75788;BME280;64406;50.024;14.492;2023-02-11T02:47:59;99548.78;;;-0.87;71.35
75788;BME280;64406;50.024;14.492;2023-02-11T02:50:29;99568.56;;;-0.74;71.41
75788;BME280;64406;50.024;14.492;2023-02-11T02:55:52;99562.13;;;-0.72;70.70
75788;BME280;64406;50.024;14.492;2023-02-11T03:07:38;99578.72;;;-0.55;70.87
75788;BME280;64406;50.024;14.492;2023-02-11T03:10:14;99582.41;;;-0.64;71.10
75788;BME280;64406;50.024;14.492;2023-02-11T03:12:43;99570.50;;;-0.68;71.17
75788;BME280;64406;50.024;14.492;2023-02-11T03:15:10;99564.06;;;-0.66;70.49
75788;BME280;64406;50.024;14.492;2023-02-11T03:17:40;99567.81;;;-0.60;70.71
75788;BME280;64406;50.024;14.492;2023-02-11T03:20:10;99553.63;;;-0.59;70.28
75788;BME280;64406;50.024;14.492;2023-02-11T03:22:41;99554.06;;;-0.56;70.12
75788;BME280;64406;50.024;14.492;2023-02-11T03:25:09;99548.66;;;-0.62;70.17
75788;BME280;64406;50.024;14.492;2023-02-11T03:27:45;99528.66;;;-0.65;70.06
75788;BME280;64406;50.024;14.492;2023-02-11T03:35:53;99548.97;;;-0.57;70.95
75788;BME280;64406;50.024;14.492;2023-02-11T03:38:23;99532.13;;;-0.64;70.29
75788;BME280;64406;50.024;14.492;2023-02-11T03:40:51;99528.13;;;-0.60;70.44
75788;BME280;64406;50.024;14.492;2023-02-11T03:43:25;99528.38;;;-0.47;69.51
75788;BME280;64406;50.024;14.492;2023-02-11T03:45:52;99535.59;;;-0.33;69.88
75788;BME280;64406;50.024;14.492;2023-02-11T03:48:25;99528.41;;;-0.24;68.88
75788;BME280;64406;50.024;14.492;2023-02-11T03:50:53;99527.03;;;-0.20;68.73
75788;BME280;64406;50.024;14.492;2023-02-11T03:53:21;99516.88;;;-0.31;69.42
75788;BME280;64406;50.024;14.492;2023-02-11T03:55:49;99534.84;;;-0.27;69.94
75788;BME280;64406;50.024;14.492;2023-02-11T03:58:15;99519.34;;;-0.30;69.57
75788;BME280;64406;50.024;14.492;2023-02-11T04:00:43;99531.94;;;-0.32;69.27
75788;BME280;64406;50.024;14.492;2023-02-11T04:03:10;99532.28;;;-0.35;69.67
75788;BME280;64406;50.024;14.492;2023-02-11T04:05:36;99522.38;;;-0.41;70.22
75788;BME280;64406;50.024;14.492;2023-02-11T04:08:02;99513.44;;;-0.40;69.85
75788;BME280;64406;50.024;14.492;2023-02-11T04:10:28;99504.75;;;-0.48;70.54
75788;BME280;64406;50.024;14.492;2023-02-11T04:12:54;99491.38;;;-0.55;70.57
75788;BME280;64406;50.024;14.492;2023-02-11T04:15:22;99485.63;;;-0.59;70.18
75788;BME280;64406;50.024;14.492;2023-02-11T04:17:47;99496.69;;;-0.55;70.94
75788;BME280;64406;50.024;14.492;2023-02-11T04:20:13;99472.94;;;-0.63;70.89
75788;BME280;64406;50.024;14.492;2023-02-11T04:22:39;99467.81;;;-0.65;70.87
75788;BME280;64406;50.024;14.492;2023-02-11T04:25:05;99442.94;;;-0.56;70.57
75788;BME280;64406;50.024;14.492;2023-02-11T04:27:31;99457.69;;;-0.38;69.88
75788;BME280;64406;50.024;14.492;2023-02-11T04:29:57;99454.69;;;-0.35;69.84
75788;BME280;64406;50.024;14.492;2023-02-11T04:32:22;99459.56;;;-0.24;69.43
75788;BME280;64406;50.024;14.492;2023-02-11T04:34:48;99472.00;;;-0.10;69.14
75788;BME280;64406;50.024;14.492;2023-02-11T04:37:14;99454.72;;;-0.20;69.28
75788;BME280;64406;50.024;14.492;2023-02-11T04:39:40;99460.69;;;-0.18;69.42
75788;BME280;64406;50.024;14.492;2023-02-11T04:42:05;99469.72;;;-0.13;69.72
75788;BME280;64406;50.024;14.492;2023-02-11T04:44:31;99471.72;;;-0.15;69.46
75788;BME280;64406;50.024;14.492;2023-02-11T04:46:57;99454.19;;;-0.16;69.37
75788;BME280;64406;50.024;14.492;2023-02-11T04:49:23;99463.34;;;-0.04;69.02
75788;BME280;64406;50.024;14.492;2023-02-11T04:51:49;99447.28;;;-0.02;68.77
75788;BME280;64406;50.024;14.492;2023-02-11T04:54:15;99438.59;;;0.04;68.93
75788;BME280;64406;50.024;14.492;2023-02-11T04:56:41;99443.28;;;0.02;69.65
75788;BME280;64406;50.024;14.492;2023-02-11T04:59:07;99430.22;;;0.01;69.43
75788;BME280;64406;50.024;14.492;2023-02-11T05:01:33;99426.38;;;0.03;69.51
75788;BME280;64406;50.024;14.492;2023-02-11T05:03:59;99430.56;;;-0.03;69.00
75788;BME280;64406;50.024;14.492;2023-02-11T05:06:24;99422.44;;;-0.01;68.93
75788;BME280;64406;50.024;14.492;2023-02-11T05:08:50;99421.72;;;0.05;69.51
75788;BME280;64406;50.024;14.492;2023-02-11T05:11:21;99432.31;;;0.05;69.08
75788;BME280;64406;50.024;14.492;2023-02-11T05:13:47;99426.75;;;0.00;68.69
75788;BME280;64406;50.024;14.492;2023-02-11T05:16:14;99436.88;;;0.11;68.94
75788;BME280;64406;50.024;14.492;2023-02-11T05:18:41;99439.34;;;0.13;69.49
75788;BME280;64406;50.024;14.492;2023-02-11T05:21:09;99435.88;;;0.12;69.60
75788;BME280;64406;50.024;14.492;2023-02-11T05:23:35;99441.81;;;0.14;69.22
75788;BME280;64406;50.024;14.492;2023-02-11T05:26:01;99422.81;;;0.11;68.84
75788;BME280;64406;50.024;14.492;2023-02-11T05:28:28;99406.47;;;0.07;69.14
75788;BME280;64406;50.024;14.492;2023-02-11T05:30:53;99413.50;;;0.15;69.69
75788;BME280;64406;50.024;14.492;2023-02-11T05:33:19;99423.81;;;0.10;69.47
75788;BME280;64406;50.024;14.492;2023-02-11T05:35:45;99423.53;;;0.05;69.03
75788;BME280;64406;50.024;14.492;2023-02-11T05:38:11;99437.97;;;0.17;68.72
75788;BME280;64406;50.024;14.492;2023-02-11T05:40:37;99406.72;;;0.12;69.29
75788;BME280;64406;50.024;14.492;2023-02-11T05:43:02;99426.03;;;0.21;68.69
75788;BME280;64406;50.024;14.492;2023-02-11T05:45:29;99431.78;;;0.24;69.27
75788;BME280;64406;50.024;14.492;2023-02-11T05:47:55;99435.25;;;0.25;68.90
75788;BME280;64406;50.024;14.492;2023-02-11T05:50:21;99412.78;;;0.21;69.41
75788;BME280;64406;50.024;14.492;2023-02-11T05:52:46;99430.59;;;0.27;68.63
75788;BME280;64406;50.024;14.492;2023-02-11T05:55:12;99418.91;;;0.21;68.99
75788;BME280;64406;50.024;14.492;2023-02-11T05:57:38;99423.28;;;0.29;68.96
75788;BME280;64406;50.024;14.492;2023-02-11T06:00:04;99414.78;;;0.19;69.07
75788;BME280;64406;50.024;14.492;2023-02-11T06:02:30;99425.75;;;0.31;69.21
75788;BME280;64406;50.024;14.492;2023-02-11T06:04:56;99431.22;;;0.29;69.22
75788;BME280;64406;50.024;14.492;2023-02-11T06:07:22;99435.50;;;0.45;68.79
75788;BME280;64406;50.024;14.492;2023-02-11T06:09:47;99417.16;;;0.43;68.75
75788;BME280;64406;50.024;14.492;2023-02-11T06:12:14;99418.69;;;0.52;68.38
75788;BME280;64406;50.024;14.492;2023-02-11T06:14:40;99418.69;;;0.52;68.47
75788;BME280;64406;50.024;14.492;2023-02-11T06:17:06;99417.78;;;0.60;68.17
75788;BME280;64406;50.024;14.492;2023-02-11T06:19:32;99412.66;;;0.59;68.17
75788;BME280;64406;50.024;14.492;2023-02-11T06:21:58;99412.38;;;0.68;68.24
75788;BME280;64406;50.024;14.492;2023-02-11T06:24:23;99425.09;;;0.73;68.14
75788;BME280;64406;50.024;14.492;2023-02-11T06:26:49;99424.63;;;0.69;68.39
75788;BME280;64406;50.024;14.492;2023-02-11T06:29:15;99409.44;;;0.63;68.32
75788;BME280;64406;50.024;14.492;2023-02-11T06:31:40;99410.91;;;0.80;68.32
75788;BME280;64406;50.024;14.492;2023-02-11T06:34:07;99407.16;;;0.75;68.00
75788;BME280;64406;50.024;14.492;2023-02-11T06:36:35;99404.94;;;0.78;68.15
75788;BME280;64406;50.024;14.492;2023-02-11T06:39:01;99407.59;;;0.78;67.93
75788;BME280;64406;50.024;14.492;2023-02-11T06:41:27;99414.38;;;0.81;68.03
75788;BME280;64406;50.024;14.492;2023-02-11T06:43:52;99419.56;;;0.89;67.70
75788;BME280;64406;50.024;14.492;2023-02-11T06:46:18;99427.03;;;1.00;67.97
75788;BME280;64406;50.024;14.492;2023-02-11T06:48:44;99423.38;;;1.01;67.88
75788;BME280;64406;50.024;14.492;2023-02-11T06:51:11;99425.47;;;1.06;67.26
75788;BME280;64406;50.024;14.492;2023-02-11T06:53:39;99403.78;;;1.02;67.83
75788;BME280;64406;50.024;14.492;2023-02-11T06:56:08;99416.50;;;1.07;67.86
75788;BME280;64406;50.024;14.492;2023-02-11T06:58:34;99440.38;;;1.07;67.66
75788;BME280;64406;50.024;14.492;2023-02-11T07:01:04;99424.63;;;1.05;67.82
75788;BME280;64406;50.024;14.492;2023-02-11T07:03:36;99416.84;;;1.04;67.45
75788;BME280;64406;50.024;14.492;2023-02-11T07:06:03;99413.19;;;1.05;67.80
75788;BME280;64406;50.024;14.492;2023-02-11T07:08:33;99426.59;;;1.18;67.96
75788;BME280;64406;50.024;14.492;2023-02-11T07:11:00;99438.69;;;1.21;67.70
75788;BME280;64406;50.024;14.492;2023-02-11T07:13:25;99431.00;;;1.11;67.52
75788;BME280;64406;50.024;14.492;2023-02-11T07:15:51;99440.19;;;1.30;67.17
75788;BME280;64406;50.024;14.492;2023-02-11T07:18:16;99434.88;;;1.30;67.30
75788;BME280;64406;50.024;14.492;2023-02-11T07:20:42;99424.59;;;1.20;67.31
75788;BME280;64406;50.024;14.492;2023-02-11T07:23:08;99447.78;;;1.33;67.22
75788;BME280;64406;50.024;14.492;2023-02-11T07:25:34;99441.47;;;1.34;67.32
75788;BME280;64406;50.024;14.492;2023-02-11T07:28:00;99425.69;;;1.26;67.08
75788;BME280;64406;50.024;14.492;2023-02-11T07:30:26;99436.97;;;1.34;66.94
75788;BME280;64406;50.024;14.492;2023-02-11T07:32:52;99432.03;;;1.31;67.27
75788;BME280;64406;50.024;14.492;2023-02-11T07:35:18;99440.25;;;1.36;67.07
75788;BME280;64406;50.024;14.492;2023-02-11T07:37:44;99445.00;;;1.41;67.36
75788;BME280;64406;50.024;14.492;2023-02-11T07:40:12;99451.56;;;1.45;67.14
75788;BME280;64406;50.024;14.492;2023-02-11T07:42:37;99445.81;;;1.42;66.83
75788;BME280;64406;50.024;14.492;2023-02-11T07:45:05;99461.00;;;1.48;67.07
75788;BME280;64406;50.024;14.492;2023-02-11T07:47:31;99455.31;;;1.51;66.76
75788;BME280;64406;50.024;14.492;2023-02-11T07:49:58;99453.97;;;1.61;66.69
75788;BME280;64406;50.024;14.492;2023-02-11T07:52:24;99435.91;;;1.50;66.63
75788;BME280;64406;50.024;14.492;2023-02-11T07:54:50;99444.25;;;1.69;66.25
75788;BME280;64406;50.024;14.492;2023-02-11T07:57:15;99415.72;;;1.56;66.69
75788;BME280;64406;50.024;14.492;2023-02-11T07:59:41;99453.66;;;1.71;66.52
75788;BME280;64406;50.024;14.492;2023-02-11T08:02:08;99444.81;;;1.64;66.58
75788;BME280;64406;50.024;14.492;2023-02-11T08:04:34;99446.69;;;1.70;66.57
75788;BME280;64406;50.024;14.492;2023-02-11T08:07:00;99458.09;;;1.85;66.15
75788;BME280;64406;50.024;14.492;2023-02-11T08:09:26;99438.22;;;1.81;65.89
75788;BME280;64406;50.024;14.492;2023-02-11T08:11:51;99445.78;;;1.84;66.32
75788;BME280;64406;50.024;14.492;2023-02-11T08:14:17;99444.44;;;1.95;65.89
75788;BME280;64406;50.024;14.492;2023-02-11T08:16:42;99433.97;;;2.15;65.90
75788;BME280;64406;50.024;14.492;2023-02-11T08:19:13;99418.06;;;2.22;65.10
75788;BME280;64406;50.024;14.492;2023-02-11T08:21:39;99430.81;;;2.33;65.26
75788;BME280;64406;50.024;14.492;2023-02-11T08:24:06;99422.97;;;2.18;65.26
75788;BME280;64406;50.024;14.492;2023-02-11T08:26:32;99421.66;;;2.42;64.69
75788;BME280;64406;50.024;14.492;2023-02-11T08:29:06;99434.09;;;2.35;64.82
75788;BME280;64406;50.024;14.492;2023-02-11T08:31:35;99413.72;;;2.14;65.29
75788;BME280;64406;50.024;14.492;2023-02-11T08:34:02;99431.22;;;2.36;65.40
75788;BME280;64406;50.024;14.492;2023-02-11T08:36:33;99435.75;;;2.42;65.34
75788;BME280;64406;50.024;14.492;2023-02-11T08:39:03;99426.63;;;2.52;64.92
75788;BME280;64406;50.024;14.492;2023-02-11T08:41:31;99423.34;;;2.56;64.11
75788;BME280;64406;50.024;14.492;2023-02-11T08:43:57;99435.63;;;2.57;64.44
75788;BME280;64406;50.024;14.492;2023-02-11T08:46:23;99427.03;;;2.55;64.36
75788;BME280;64406;50.024;14.492;2023-02-11T08:48:49;99434.50;;;2.73;63.93
75788;BME280;64406;50.024;14.492;2023-02-11T08:51:25;99426.16;;;2.89;63.52
75788;BME280;64406;50.024;14.492;2023-02-11T08:53:56;99438.09;;;3.07;63.16
75788;BME280;64406;50.024;14.492;2023-02-11T08:56:22;99421.28;;;2.93;63.43
75788;BME280;64406;50.024;14.492;2023-02-11T08:58:49;99444.84;;;3.03;63.02
75788;BME280;64406;50.024;14.492;2023-02-11T09:01:21;99435.78;;;2.90;63.36
75788;BME280;64406;50.024;14.492;2023-02-11T09:03:49;99433.28;;;2.82;63.65
75788;BME280;64406;50.024;14.492;2023-02-11T09:06:15;99446.59;;;2.82;63.72
75788;BME280;64406;50.024;14.492;2023-02-11T09:08:46;99447.88;;;2.93;63.56
75788;BME280;64406;50.024;14.492;2023-02-11T09:11:14;99445.56;;;2.83;63.72
75788;BME280;64406;50.024;14.492;2023-02-11T09:13:42;99445.84;;;3.02;63.45
75788;BME280;64406;50.024;14.492;2023-02-11T09:16:15;99429.31;;;3.13;63.09
75788;BME280;64406;50.024;14.492;2023-02-11T09:18:42;99439.19;;;3.32;62.71
75788;BME280;64406;50.024;14.492;2023-02-11T09:21:09;99442.13;;;3.57;62.08
75788;BME280;64406;50.024;14.492;2023-02-11T09:23:35;99442.25;;;3.36;62.93
75788;BME280;64406;50.024;14.492;2023-02-11T09:26:07;99445.16;;;3.54;62.42
75788;BME280;64406;50.024;14.492;2023-02-11T09:28:32;99440.25;;;3.38;62.79
75788;BME280;64406;50.024;14.492;2023-02-11T09:30:58;99443.75;;;3.51;63.08
75788;BME280;64406;50.024;14.492;2023-02-11T09:33:24;99444.13;;;3.42;62.56
75788;BME280;64406;50.024;14.492;2023-02-11T09:35:49;99449.91;;;3.72;62.03
75788;BME280;64406;50.024;14.492;2023-02-11T09:38:15;99447.63;;;3.69;61.98
75788;BME280;64406;50.024;14.492;2023-02-11T09:40:42;99444.34;;;3.60;62.29
75788;BME280;64406;50.024;14.492;2023-02-11T09:43:32;99450.72;;;3.79;62.04
75788;BME280;64406;50.024;14.492;2023-02-11T09:46:00;99443.34;;;3.81;61.79
75788;BME280;64406;50.024;14.492;2023-02-11T09:48:28;99454.41;;;3.71;62.07
75788;BME280;64406;50.024;14.492;2023-02-11T09:51:00;99439.22;;;3.52;62.55
75788;BME280;64406;50.024;14.492;2023-02-11T09:53:41;99458.28;;;3.75;61.71
75788;BME280;64406;50.024;14.492;2023-02-11T09:56:12;99460.97;;;3.95;61.84
75788;BME280;64406;50.024;14.492;2023-02-11T09:58:43;99448.06;;;3.79;62.12
75788;BME280;64406;50.024;14.492;2023-02-11T10:06:55;99465.47;;;4.01;61.16
75788;BME280;64406;50.024;14.492;2023-02-11T10:20:35;99488.44;;;4.09;61.86
75788;BME280;64406;50.024;14.492;2023-02-11T10:23:19;99467.75;;;3.85;62.71
75788;BME280;64406;50.024;14.492;2023-02-11T10:25:54;99439.63;;;4.02;62.09
75788;BME280;64406;50.024;14.492;2023-02-11T10:28:23;99447.84;;;4.07;62.18
75788;BME280;64406;50.024;14.492;2023-02-11T10:31:03;99438.63;;;4.03;62.35
75788;BME280;64406;50.024;14.492;2023-02-11T10:36:06;99431.25;;;3.92;62.62
75788;BME280;64406;50.024;14.492;2023-02-11T10:38:31;99408.31;;;3.77;63.52
75788;BME280;64406;50.024;14.492;2023-02-11T10:40:58;99415.47;;;3.84;63.39
75788;BME280;64406;50.024;14.492;2023-02-11T10:43:26;99407.06;;;3.93;63.50
75788;BME280;64406;50.024;14.492;2023-02-11T10:45:54;99399.06;;;4.00;63.23
75788;BME280;64406;50.024;14.492;2023-02-11T10:48:46;99400.09;;;3.99;64.04
75788;BME280;64406;50.024;14.492;2023-02-11T10:53:44;99400.31;;;3.91;63.82
75788;BME280;64406;50.024;14.492;2023-02-11T10:56:20;99371.38;;;3.74;64.07
75788;BME280;64406;50.024;14.492;2023-02-11T10:59:19;99402.34;;;3.82;64.75
75788;BME280;64406;50.024;14.492;2023-02-11T11:01:50;99363.59;;;3.79;64.69
75788;BME280;64406;50.024;14.492;2023-02-11T11:06:55;99402.97;;;3.71;65.16
75788;BME280;64406;50.024;14.492;2023-02-11T11:09:43;99385.97;;;3.65;64.77
75788;BME280;64406;50.024;14.492;2023-02-11T11:12:46;99390.84;;;4.01;64.74
75788;BME280;64406;50.024;14.492;2023-02-11T11:15:18;99378.56;;;3.80;64.94
75788;BME280;64406;50.024;14.492;2023-02-11T11:17:59;99392.69;;;3.81;65.66
75788;BME280;64406;50.024;14.492;2023-02-11T11:20:33;99393.75;;;3.80;65.69
75788;BME280;64406;50.024;14.492;2023-02-11T11:23:21;99378.97;;;3.91;65.35
75788;BME280;64406;50.024;14.492;2023-02-11T11:28:58;99405.19;;;4.14;64.49
75788;BME280;64406;50.024;14.492;2023-02-11T11:31:36;99403.16;;;3.89;65.59
75788;BME280;64406;50.024;14.492;2023-02-11T11:34:26;99407.22;;;4.18;64.84
75788;BME280;64406;50.024;14.492;2023-02-11T11:36:53;99416.47;;;4.09;65.19
75788;BME280;64406;50.024;14.492;2023-02-11T11:39:24;99426.53;;;3.87;66.08
75788;BME280;64406;50.024;14.492;2023-02-11T11:41:53;99408.47;;;3.82;65.88
75788;BME280;64406;50.024;14.492;2023-02-11T11:44:33;99403.97;;;4.09;65.23
75788;BME280;64406;50.024;14.492;2023-02-11T11:52:53;99392.88;;;4.13;65.93
75788;BME280;64406;50.024;14.492;2023-02-11T11:55:27;99404.00;;;3.96;65.72
75788;BME280;64406;50.024;14.492;2023-02-11T11:57:56;99394.31;;;4.02;65.72
75788;BME280;64406;50.024;14.492;2023-02-11T12:00:35;99393.50;;;4.01;65.89
75788;BME280;64406;50.024;14.492;2023-02-11T12:06:23;99390.66;;;3.90;66.35
75788;BME280;64406;50.024;14.492;2023-02-11T12:17:47;99381.22;;;4.72;63.92
75788;BME280;64406;50.024;14.492;2023-02-11T12:20:35;99368.94;;;4.57;64.80
75788;BME280;64406;50.024;14.492;2023-02-11T12:42:19;99363.53;;;4.13;66.46
75788;BME280;64406;50.024;14.492;2023-02-11T12:55:39;99372.38;;;4.00;67.08
75788;BME280;64406;50.024;14.492;2023-02-11T12:58:14;99354.78;;;3.92;67.75
75788;BME280;64406;50.024;14.492;2023-02-11T13:00:50;99342.84;;;4.01;67.45
75788;BME280;64406;50.024;14.492;2023-02-11T13:03:25;99355.97;;;4.09;67.00
75788;BME280;64406;50.024;14.492;2023-02-11T13:05:57;99361.94;;;3.92;67.72
75788;BME280;64406;50.024;14.492;2023-02-11T13:08:31;99354.78;;;3.92;67.57
75788;BME280;64406;50.024;14.492;2023-02-11T13:11:04;99368.69;;;4.07;67.85
75788;BME280;64406;50.024;14.492;2023-02-11T13:13:41;99349.81;;;4.09;67.26
75788;BME280;64406;50.024;14.492;2023-02-11T13:19:06;99355.13;;;4.09;67.77
75788;BME280;64406;50.024;14.492;2023-02-11T13:24:52;99344.66;;;4.21;66.88
75788;BME280;64406;50.024;14.492;2023-02-11T13:27:42;99342.72;;;4.41;66.78
75788;BME280;64406;50.024;14.492;2023-02-11T13:30:34;99345.63;;;4.33;66.22
75788;BME280;64406;50.024;14.492;2023-02-11T13:38:27;99346.91;;;4.69;65.53
75788;BME280;64406;50.024;14.492;2023-02-11T13:41:17;99353.81;;;4.89;65.22
75788;BME280;64406;50.024;14.492;2023-02-11T13:44:15;99352.25;;;4.69;65.22
75788;BME280;64406;50.024;14.492;2023-02-11T13:46:51;99346.53;;;4.65;65.92
75788;BME280;64406;50.024;14.492;2023-02-11T13:49:21;99346.63;;;4.45;66.44
75788;BME280;64406;50.024;14.492;2023-02-11T13:51:48;99344.63;;;4.27;66.47
75788;BME280;64406;50.024;14.492;2023-02-11T13:54:21;99349.91;;;4.41;66.55
75788;BME280;64406;50.024;14.492;2023-02-11T13:59:51;99356.75;;;4.23;66.71
75788;BME280;64406;50.024;14.492;2023-02-11T14:05:19;99345.47;;;4.15;67.58
75788;BME280;64406;50.024;14.492;2023-02-11T14:08:12;99358.00;;;4.14;67.82
75788;BME280;64406;50.024;14.492;2023-02-11T14:16:29;99325.63;;;4.04;67.63
75788;BME280;64406;50.024;14.492;2023-02-11T14:21:23;99329.13;;;3.98;67.72
75788;BME280;64406;50.024;14.492;2023-02-11T14:29:40;99359.88;;;4.00;68.42
75788;BME280;64406;50.024;14.492;2023-02-11T14:32:33;99355.78;;;3.98;68.66
75788;BME280;64406;50.024;14.492;2023-02-11T14:35:13;99351.50;;;3.97;68.08
75788;BME280;64406;50.024;14.492;2023-02-11T14:40:17;99342.47;;;3.98;68.16
75788;BME280;64406;50.024;14.492;2023-02-11T14:42:43;99351.28;;;3.98;68.36
75788;BME280;64406;50.024;14.492;2023-02-11T14:45:16;99354.53;;;4.00;68.62
75788;BME280;64406;50.024;14.492;2023-02-11T14:47:48;99352.91;;;4.06;67.92
75788;BME280;64406;50.024;14.492;2023-02-11T14:53:31;99361.13;;;3.98;68.30
75788;BME280;64406;50.024;14.492;2023-02-11T14:55:58;99345.75;;;3.93;68.88
75788;BME280;64406;50.024;14.492;2023-02-11T14:58:31;99335.69;;;3.89;68.33
75788;BME280;64406;50.024;14.492;2023-02-11T15:05:59;99352.13;;;3.86;68.70
75788;BME280;64406;50.024;14.492;2023-02-11T15:08:27;99341.25;;;3.80;68.75
75788;BME280;64406;50.024;14.492;2023-02-11T15:10:54;99356.63;;;3.85;69.58
75788;BME280;64406;50.024;14.492;2023-02-11T15:13:22;99345.78;;;3.73;69.25
75788;BME280;64406;50.024;14.492;2023-02-11T15:16:05;99350.50;;;3.71;69.16
75788;BME280;64406;50.024;14.492;2023-02-11T15:18:36;99350.72;;;3.63;69.34
75788;BME280;64406;50.024;14.492;2023-02-11T15:21:04;99342.31;;;3.60;69.07
75788;BME280;64406;50.024;14.492;2023-02-11T15:23:30;99363.41;;;3.68;69.22
75788;BME280;64406;50.024;14.492;2023-02-11T15:25:56;99351.53;;;3.64;69.85
75788;BME280;64406;50.024;14.492;2023-02-11T15:28:23;99353.38;;;3.70;69.53
75788;BME280;64406;50.024;14.492;2023-02-11T15:31:04;99355.03;;;3.58;70.05
75788;BME280;64406;50.024;14.492;2023-02-11T15:33:31;99357.69;;;3.58;69.46
75788;BME280;64406;50.024;14.492;2023-02-11T15:35:59;99358.72;;;3.57;69.62
75788;BME280;64406;50.024;14.492;2023-02-11T15:38:26;99363.00;;;3.58;69.93
75788;BME280;64406;50.024;14.492;2023-02-11T15:40:59;99350.91;;;3.55;70.11
75788;BME280;64406;50.024;14.492;2023-02-11T15:43:45;99360.13;;;3.52;69.78
75788;BME280;64406;50.024;14.492;2023-02-11T15:46:16;99355.03;;;3.51;70.17